sensor_id;sensor_type;location;lat;lon;timestamp;pressure;altitude;pressure_sealevel;temperature;humidity
29941;BME280;16801;53.562;10.038;2023-04-06T00:02:02;101989.75;;;4.84;58.86
29941;BME280;16801;53.562;10.038;2023-04-06T00:05:23;101987.75;;;4.74;59.71
29941;BME280;16801;53.562;10.038;2023-04-06T00:08:44;101983.47;;;4.73;59.44
29941;BME280;16801;53.562;10.038;2023-04-06T00:12:06;101990.16;;;4.77;59.74
29941;BME280;16801;53.562;10.038;2023-04-06T00:15:27;101984.63;;;4.82;58.85
29941;BME280;16801;53.562;10.038;2023-04-06T00:18:50;101979.47;;;4.68;59.50
29941;BME280;16801;53.562;10.038;2023-04-06T00:22:11;101972.97;;;4.61;60.15
29941;BME280;16801;53.562;10.038;2023-04-06T00:25:32;101979.16;;;4.60;60.51
29941;BME280;16801;53.562;10.038;2023-04-06T00:28:53;101970.88;;;4.53;60.00
29941;BME280;16801;53.562;10.038;2023-04-06T00:32:14;101966.69;;;4.51;60.18
29941;BME280;16801;53.562;10.038;2023-04-06T00:35:37;101969.72;;;4.44;60.05
29941;BME280;16801;53.562;10.038;2023-04-06T00:38:58;101963.75;;;4.42;59.84
29941;BME280;16801;53.562;10.038;2023-04-06T00:42:21;101965.22;;;4.46;60.15
29941;BME280;16801;53.562;10.038;2023-04-06T00:45:45;101960.41;;;4.53;59.60
29941;BME280;16801;53.562;10.038;2023-04-06T00:49:06;101954.88;;;4.45;61.13
29941;BME280;16801;53.562;10.038;2023-04-06T00:52:29;101952.25;;;4.45;60.65
29941;BME280;16801;53.562;10.038;2023-04-06T00:55:50;101954.44;;;4.38;60.12
29941;BME280;16801;53.562;10.038;2023-04-06T00:59:11;101952.31;;;4.31;61.08
29941;BME280;16801;53.562;10.038;2023-04-06T01:02:34;101946.38;;;4.29;60.49
29941;BME280;16801;53.562;10.038;2023-04-06T01:05:55;101945.00;;;4.23;61.37
29941;BME280;16801;53.562;10.038;2023-04-06T01:09:24;101937.78;;;4.27;61.39
29941;BME280;16801;53.562;10.038;2023-04-06T01:12:46;101940.59;;;4.24;61.63
29941;BME280;16801;53.562;10.038;2023-04-06T01:16:15;101937.84;;;4.12;61.69
29941;BME280;16801;53.562;10.038;2023-04-06T01:19:43;101935.31;;;4.11;61.95
29941;BME280;16801;53.562;10.038;2023-04-06T01:23:13;101930.19;;;4.09;61.94
29941;BME280;16801;53.562;10.038;2023-04-06T01:26:38;101924.66;;;4.01;62.31
29941;BME280;16801;53.562;10.038;2023-04-06T01:30:03;101922.97;;;4.00;63.22
29941;BME280;16801;53.562;10.038;2023-04-06T01:33:36;101928.59;;;3.94;63.31
29941;BME280;16801;53.562;10.038;2023-04-06T01:37:00;101932.97;;;3.94;63.12
29941;BME280;16801;53.562;10.038;2023-04-06T01:40:25;101926.06;;;3.93;62.98
29941;BME280;16801;53.562;10.038;2023-04-06T01:43:47;101931.09;;;3.96;63.64
29941;BME280;16801;53.562;10.038;2023-04-06T01:47:08;101928.31;;;3.85;63.79
29941;BME280;16801;53.562;10.038;2023-04-06T01:50:30;101922.25;;;3.84;63.81
29941;BME280;16801;53.562;10.038;2023-04-06T01:53:51;101914.75;;;3.80;64.36
29941;BME280;16801;53.562;10.038;2023-04-06T01:57:17;101916.53;;;3.79;64.83
29941;BME280;16801;53.562;10.038;2023-04-06T02:00:43;101916.25;;;3.84;64.66
29941;BME280;16801;53.562;10.038;2023-04-06T02:04:04;101914.34;;;3.86;65.75
29941;BME280;16801;53.562;10.038;2023-04-06T02:07:26;101912.56;;;3.86;65.49
29941;BME280;16801;53.562;10.038;2023-04-06T02:10:48;101901.00;;;3.90;65.50
29941;BME280;16801;53.562;10.038;2023-04-06T02:14:19;101905.38;;;3.90;65.73
29941;BME280;16801;53.562;10.038;2023-04-06T02:17:45;101901.81;;;3.91;64.85
29941;BME280;16801;53.562;10.038;2023-04-06T02:21:07;101896.78;;;3.88;65.79
29941;BME280;16801;53.562;10.038;2023-04-06T02:24:27;101892.59;;;3.85;66.32
29941;BME280;16801;53.562;10.038;2023-04-06T02:27:48;101897.00;;;3.85;66.72
29941;BME280;16801;53.562;10.038;2023-04-06T02:31:11;101897.97;;;3.84;66.80
29941;BME280;16801;53.562;10.038;2023-04-06T02:34:34;101898.25;;;3.79;66.29
29941;BME280;16801;53.562;10.038;2023-04-06T02:37:55;101892.38;;;3.75;66.98
29941;BME280;16801;53.562;10.038;2023-04-06T02:41:17;101895.72;;;3.77;66.11
29941;BME280;16801;53.562;10.038;2023-04-06T02:44:38;101901.16;;;3.74;66.98
29941;BME280;16801;53.562;10.038;2023-04-06T02:48:03;101899.66;;;3.70;66.40
29941;BME280;16801;53.562;10.038;2023-04-06T02:51:25;101893.66;;;3.41;68.96
29941;BME280;16801;53.562;10.038;2023-04-06T02:54:50;101898.78;;;3.16;69.93
29941;BME280;16801;53.562;10.038;2023-04-06T02:58:17;101899.22;;;3.37;69.32
29941;BME280;16801;53.562;10.038;2023-04-06T03:01:43;101905.63;;;3.31;70.05
29941;BME280;16801;53.562;10.038;2023-04-06T03:05:06;101897.53;;;3.36;69.51
29941;BME280;16801;53.562;10.038;2023-04-06T03:08:31;101900.28;;;3.47;70.32
29941;BME280;16801;53.562;10.038;2023-04-06T03:11:52;101906.16;;;3.51;69.73
29941;BME280;16801;53.562;10.038;2023-04-06T03:15:14;101900.97;;;3.36;69.55
29941;BME280;16801;53.562;10.038;2023-04-06T03:18:40;101905.28;;;3.09;71.54
29941;BME280;16801;53.562;10.038;2023-04-06T03:22:02;101906.59;;;3.02;73.16
29941;BME280;16801;53.562;10.038;2023-04-06T03:25:23;101899.13;;;2.96;74.33
29941;BME280;16801;53.562;10.038;2023-04-06T03:28:45;101902.56;;;2.96;73.89
29941;BME280;16801;53.562;10.038;2023-04-06T03:32:07;101908.53;;;2.84;74.53
29941;BME280;16801;53.562;10.038;2023-04-06T03:35:32;101906.78;;;2.70;75.19
29941;BME280;16801;53.562;10.038;2023-04-06T03:38:54;101910.13;;;2.87;74.66
29941;BME280;16801;53.562;10.038;2023-04-06T03:42:15;101903.63;;;3.08;73.92
29941;BME280;16801;53.562;10.038;2023-04-06T03:45:43;101910.13;;;3.01;73.77
29941;BME280;16801;53.562;10.038;2023-04-06T03:49:06;101911.72;;;3.03;74.04
29941;BME280;16801;53.562;10.038;2023-04-06T03:52:27;101913.41;;;2.90;74.68
29941;BME280;16801;53.562;10.038;2023-04-06T03:55:49;101903.34;;;2.84;73.97
29941;BME280;16801;53.562;10.038;2023-04-06T03:59:10;101916.38;;;2.98;73.57
29941;BME280;16801;53.562;10.038;2023-04-06T04:02:31;101910.88;;;3.03;73.19
29941;BME280;16801;53.562;10.038;2023-04-06T04:05:53;101920.94;;;3.09;73.10
29941;BME280;16801;53.562;10.038;2023-04-06T04:09:14;101915.16;;;3.04;72.77
29941;BME280;16801;53.562;10.038;2023-04-06T04:12:36;101920.56;;;3.01;73.17
29941;BME280;16801;53.562;10.038;2023-04-06T04:15:58;101920.28;;;3.05;73.44
29941;BME280;16801;53.562;10.038;2023-04-06T04:19:19;101915.34;;;3.01;73.28
29941;BME280;16801;53.562;10.038;2023-04-06T04:22:40;101922.22;;;3.02;73.49
29941;BME280;16801;53.562;10.038;2023-04-06T04:26:02;101930.91;;;3.02;72.36
29941;BME280;16801;53.562;10.038;2023-04-06T04:29:25;101927.19;;;2.92;73.17
29941;BME280;16801;53.562;10.038;2023-04-06T04:32:47;101932.09;;;2.97;73.84
29941;BME280;16801;53.562;10.038;2023-04-06T04:36:12;101933.25;;;2.93;72.50
29941;BME280;16801;53.562;10.038;2023-04-06T04:39:36;101933.97;;;2.81;73.21
29941;BME280;16801;53.562;10.038;2023-04-06T04:43:00;101933.78;;;2.84;73.60
29941;BME280;16801;53.562;10.038;2023-04-06T04:46:28;101932.75;;;2.86;73.37
29941;BME280;16801;53.562;10.038;2023-04-06T04:49:49;101930.72;;;2.91;73.15
29941;BME280;16801;53.562;10.038;2023-04-06T04:53:15;101936.78;;;2.92;73.17
29941;BME280;16801;53.562;10.038;2023-04-06T04:56:38;101928.88;;;2.93;73.52
29941;BME280;16801;53.562;10.038;2023-04-06T05:00:15;101926.13;;;2.95;72.86
29941;BME280;16801;53.562;10.038;2023-04-06T05:03:38;101929.97;;;2.89;73.35
29941;BME280;16801;53.562;10.038;2023-04-06T05:07:04;101922.50;;;2.97;73.10
29941;BME280;16801;53.562;10.038;2023-04-06T05:10:27;101918.59;;;3.04;71.66
29941;BME280;16801;53.562;10.038;2023-04-06T05:13:52;101927.81;;;2.96;72.37
29941;BME280;16801;53.562;10.038;2023-04-06T05:17:17;101929.22;;;3.01;72.34
29941;BME280;16801;53.562;10.038;2023-04-06T05:20:39;101934.09;;;2.93;72.42
29941;BME280;16801;53.562;10.038;2023-04-06T05:24:01;101933.31;;;3.05;72.12
29941;BME280;16801;53.562;10.038;2023-04-06T05:27:24;101930.16;;;3.15;72.27
29941;BME280;16801;53.562;10.038;2023-04-06T05:30:46;101931.25;;;3.25;71.08
29941;BME280;16801;53.562;10.038;2023-04-06T05:34:09;101928.66;;;3.25;70.76
29941;BME280;16801;53.562;10.038;2023-04-06T05:37:32;101921.19;;;3.19;70.69
29941;BME280;16801;53.562;10.038;2023-04-06T05:40:53;101920.91;;;3.23;70.89
29941;BME280;16801;53.562;10.038;2023-04-06T05:44:19;101923.41;;;3.39;70.70
29941;BME280;16801;53.562;10.038;2023-04-06T05:47:46;101925.81;;;3.42;70.07
29941;BME280;16801;53.562;10.038;2023-04-06T05:51:16;101918.69;;;3.99;73.04
29941;BME280;16801;53.562;10.038;2023-04-06T05:54:43;101926.16;;;4.18;71.20
29941;BME280;16801;53.562;10.038;2023-04-06T05:58:05;101923.53;;;4.18;67.74
29941;BME280;16801;53.562;10.038;2023-04-06T06:01:26;101922.78;;;4.03;67.68
29941;BME280;16801;53.562;10.038;2023-04-06T06:04:47;101912.72;;;3.97;67.43
29941;BME280;16801;53.562;10.038;2023-04-06T06:08:10;101920.25;;;4.02;66.83
29941;BME280;16801;53.562;10.038;2023-04-06T06:11:33;101920.38;;;4.13;66.20
29941;BME280;16801;53.562;10.038;2023-04-06T06:14:56;101916.00;;;4.13;65.67
29941;BME280;16801;53.562;10.038;2023-04-06T06:18:19;101916.00;;;4.13;64.15
29941;BME280;16801;53.562;10.038;2023-04-06T06:21:43;101923.09;;;4.11;63.85
29941;BME280;16801;53.562;10.038;2023-04-06T06:25:05;101928.19;;;4.00;63.23
29941;BME280;16801;53.562;10.038;2023-04-06T06:28:27;101925.03;;;3.95;63.63
29941;BME280;16801;53.562;10.038;2023-04-06T06:31:50;101916.81;;;4.01;63.29
29941;BME280;16801;53.562;10.038;2023-04-06T06:35:11;101926.31;;;4.02;61.84
29941;BME280;16801;53.562;10.038;2023-04-06T06:38:32;101924.69;;;4.14;61.65
29941;BME280;16801;53.562;10.038;2023-04-06T06:41:54;101928.88;;;4.17;60.70
29941;BME280;16801;53.562;10.038;2023-04-06T06:45:35;101932.97;;;4.21;60.54
29941;BME280;16801;53.562;10.038;2023-04-06T06:48:58;101930.41;;;4.46;60.01
29941;BME280;16801;53.562;10.038;2023-04-06T06:52:19;101921.00;;;4.69;59.21
29941;BME280;16801;53.562;10.038;2023-04-06T06:55:41;101920.56;;;4.75;58.76
29941;BME280;16801;53.562;10.038;2023-04-06T06:59:04;101918.94;;;4.74;56.15
29941;BME280;16801;53.562;10.038;2023-04-06T07:02:26;101920.38;;;4.78;55.92
29941;BME280;16801;53.562;10.038;2023-04-06T07:05:48;101917.03;;;4.76;55.59
29941;BME280;16801;53.562;10.038;2023-04-06T07:09:13;101925.81;;;4.75;55.00
29941;BME280;16801;53.562;10.038;2023-04-06T07:12:34;101915.88;;;4.80;55.52
29941;BME280;16801;53.562;10.038;2023-04-06T07:15:55;101920.38;;;5.03;54.54
29941;BME280;16801;53.562;10.038;2023-04-06T07:19:17;101917.34;;;5.09;54.14
29941;BME280;16801;53.562;10.038;2023-04-06T07:22:38;101921.28;;;5.28;53.73
29941;BME280;16801;53.562;10.038;2023-04-06T07:25:59;101918.19;;;5.46;53.05
29941;BME280;16801;53.562;10.038;2023-04-06T07:29:20;101921.94;;;5.55;52.93
29941;BME280;16801;53.562;10.038;2023-04-06T07:32:42;101913.97;;;5.57;52.65
29941;BME280;16801;53.562;10.038;2023-04-06T07:36:04;101914.31;;;5.76;52.46
29941;BME280;16801;53.562;10.038;2023-04-06T07:39:25;101907.31;;;6.00;51.89
29941;BME280;16801;53.562;10.038;2023-04-06T07:42:48;101910.94;;;6.10;50.86
29941;BME280;16801;53.562;10.038;2023-04-06T07:46:10;101901.59;;;6.30;49.70
29941;BME280;16801;53.562;10.038;2023-04-06T07:49:31;101906.25;;;6.38;48.78
29941;BME280;16801;53.562;10.038;2023-04-06T07:52:54;101896.88;;;6.58;47.72
29941;BME280;16801;53.562;10.038;2023-04-06T07:56:16;101900.88;;;6.74;47.52
29941;BME280;16801;53.562;10.038;2023-04-06T07:59:37;101900.25;;;6.82;46.59
29941;BME280;16801;53.562;10.038;2023-04-06T08:02:58;101893.00;;;6.74;46.11
29941;BME280;16801;53.562;10.038;2023-04-06T08:06:19;101891.78;;;6.67;46.45
29941;BME280;16801;53.562;10.038;2023-04-06T08:09:42;101892.03;;;7.09;46.65
29941;BME280;16801;53.562;10.038;2023-04-06T08:13:03;101906.72;;;7.11;44.52
29941;BME280;16801;53.562;10.038;2023-04-06T08:16:24;101906.44;;;7.26;44.38
29941;BME280;16801;53.562;10.038;2023-04-06T08:19:45;101893.03;;;7.51;44.84
29941;BME280;16801;53.562;10.038;2023-04-06T08:23:05;101886.34;;;7.58;43.89
29941;BME280;16801;53.562;10.038;2023-04-06T08:26:30;101887.66;;;7.64;42.50
29941;BME280;16801;53.562;10.038;2023-04-06T08:29:51;101888.69;;;7.72;42.23
29941;BME280;16801;53.562;10.038;2023-04-06T08:33:12;101885.41;;;7.59;41.36
29941;BME280;16801;53.562;10.038;2023-04-06T08:36:33;101883.06;;;7.45;40.27
29941;BME280;16801;53.562;10.038;2023-04-06T08:39:54;101881.19;;;7.68;40.98
29941;BME280;16801;53.562;10.038;2023-04-06T08:43:17;101878.25;;;8.14;43.37
29941;BME280;16801;53.562;10.038;2023-04-06T08:46:40;101879.25;;;8.34;41.14
29941;BME280;16801;53.562;10.038;2023-04-06T08:50:03;101874.97;;;8.33;40.34
29941;BME280;16801;53.562;10.038;2023-04-06T08:53:25;101875.81;;;8.33;42.04
29941;BME280;16801;53.562;10.038;2023-04-06T08:56:47;101878.47;;;8.43;38.89
29941;BME280;16801;53.562;10.038;2023-04-06T09:00:12;101870.13;;;8.38;41.41
29941;BME280;16801;53.562;10.038;2023-04-06T09:03:35;101877.56;;;8.74;38.86
29941;BME280;16801;53.562;10.038;2023-04-06T09:06:57;101875.50;;;8.78;38.08
29941;BME280;16801;53.562;10.038;2023-04-06T09:10:18;101865.38;;;8.83;36.97
29941;BME280;16801;53.562;10.038;2023-04-06T09:13:47;101869.13;;;8.80;36.64
29941;BME280;16801;53.562;10.038;2023-04-06T09:17:19;101870.66;;;8.83;34.64
29941;BME280;16801;53.562;10.038;2023-04-06T09:20:40;101863.38;;;8.96;34.87
29941;BME280;16801;53.562;10.038;2023-04-06T09:24:03;101848.53;;;8.95;34.16
29941;BME280;16801;53.562;10.038;2023-04-06T09:27:30;101868.44;;;8.78;34.03
29941;BME280;16801;53.562;10.038;2023-04-06T09:30:51;101860.00;;;8.84;35.11
29941;BME280;16801;53.562;10.038;2023-04-06T09:34:21;101857.84;;;8.99;35.66
29941;BME280;16801;53.562;10.038;2023-04-06T09:37:43;101844.63;;;8.80;35.67
29941;BME280;16801;53.562;10.038;2023-04-06T09:41:05;101844.97;;;9.06;36.41
29941;BME280;16801;53.562;10.038;2023-04-06T09:44:26;101848.63;;;9.34;36.76
29941;BME280;16801;53.562;10.038;2023-04-06T09:47:47;101842.59;;;9.62;36.57
29941;BME280;16801;53.562;10.038;2023-04-06T09:51:13;101845.78;;;9.46;33.95
29941;BME280;16801;53.562;10.038;2023-04-06T09:54:37;101829.94;;;9.56;34.51
29941;BME280;16801;53.562;10.038;2023-04-06T09:58:03;101843.81;;;9.58;32.42
29941;BME280;16801;53.562;10.038;2023-04-06T10:01:28;101826.63;;;9.73;32.25
29941;BME280;16801;53.562;10.038;2023-04-06T10:04:55;101834.13;;;9.87;31.79
29941;BME280;16801;53.562;10.038;2023-04-06T10:08:19;101819.13;;;10.07;31.62
29941;BME280;16801;53.562;10.038;2023-04-06T10:11:41;101823.81;;;10.23;30.50
29941;BME280;16801;53.562;10.038;2023-04-06T10:15:03;101830.22;;;10.30;30.61
29941;BME280;16801;53.562;10.038;2023-04-06T10:18:24;101834.44;;;10.60;30.13
29941;BME280;16801;53.562;10.038;2023-04-06T10:21:48;101818.97;;;10.65;30.25
29941;BME280;16801;53.562;10.038;2023-04-06T10:25:12;101815.66;;;10.90;29.98
29941;BME280;16801;53.562;10.038;2023-04-06T10:28:34;101826.66;;;10.86;29.94
29941;BME280;16801;53.562;10.038;2023-04-06T10:31:56;101816.63;;;11.17;30.03
29941;BME280;16801;53.562;10.038;2023-04-06T10:35:17;101819.25;;;11.26;30.33
29941;BME280;16801;53.562;10.038;2023-04-06T10:38:39;101819.53;;;11.59;30.14
29941;BME280;16801;53.562;10.038;2023-04-06T10:42:07;101817.28;;;11.64;31.67
29941;BME280;16801;53.562;10.038;2023-04-06T10:45:31;101814.00;;;12.06;31.62
29941;BME280;16801;53.562;10.038;2023-04-06T10:48:53;101805.69;;;12.01;31.49
29941;BME280;16801;53.562;10.038;2023-04-06T10:52:14;101804.66;;;11.76;30.29
29941;BME280;16801;53.562;10.038;2023-04-06T10:55:38;101794.97;;;12.54;33.59
29941;BME280;16801;53.562;10.038;2023-04-06T10:59:02;101808.16;;;12.46;28.08
29941;BME280;16801;53.562;10.038;2023-04-06T11:02:23;101789.03;;;12.60;31.15
29941;BME280;16801;53.562;10.038;2023-04-06T11:05:45;101789.28;;;12.41;28.25
29941;BME280;16801;53.562;10.038;2023-04-06T11:09:06;101802.69;;;12.47;28.23
29941;BME280;16801;53.562;10.038;2023-04-06T11:12:27;101792.69;;;12.33;27.73
29941;BME280;16801;53.562;10.038;2023-04-06T11:15:51;101789.63;;;12.88;27.54
29941;BME280;16801;53.562;10.038;2023-04-06T11:19:12;101781.25;;;14.63;24.86
29941;BME280;16801;53.562;10.038;2023-04-06T11:22:33;101768.72;;;17.97;21.38
29941;BME280;16801;53.562;10.038;2023-04-06T11:25:54;101758.91;;;21.15;18.37
29941;BME280;16801;53.562;10.038;2023-04-06T11:29:16;101753.19;;;22.84;16.64
29941;BME280;16801;53.562;10.038;2023-04-06T11:32:41;101756.28;;;21.40;16.03
29941;BME280;16801;53.562;10.038;2023-04-06T11:36:03;101775.84;;;21.47;15.64
29941;BME280;16801;53.562;10.038;2023-04-06T11:39:25;101760.28;;;24.04;15.49
29941;BME280;16801;53.562;10.038;2023-04-06T11:42:52;101764.44;;;22.81;14.21
29941;BME280;16801;53.562;10.038;2023-04-06T11:46:17;101759.94;;;22.75;14.82
29941;BME280;16801;53.562;10.038;2023-04-06T11:49:42;101754.88;;;24.04;13.70
29941;BME280;16801;53.562;10.038;2023-04-06T11:53:04;101753.25;;;23.26;13.09
29941;BME280;16801;53.562;10.038;2023-04-06T11:56:27;101740.50;;;24.62;13.55
29941;BME280;16801;53.562;10.038;2023-04-06T11:59:48;101735.22;;;27.00;11.22
29941;BME280;16801;53.562;10.038;2023-04-06T12:03:09;101734.25;;;27.11;11.73
29941;BME280;16801;53.562;10.038;2023-04-06T12:06:32;101735.88;;;25.02;11.12
29941;BME280;16801;53.562;10.038;2023-04-06T12:09:53;101743.38;;;23.62;14.08
29941;BME280;16801;53.562;10.038;2023-04-06T12:13:13;101741.16;;;23.29;13.23
29941;BME280;16801;53.562;10.038;2023-04-06T12:16:35;101738.38;;;23.24;13.20
29941;BME280;16801;53.562;10.038;2023-04-06T12:19:55;101727.91;;;25.91;10.60
29941;BME280;16801;53.562;10.038;2023-04-06T12:23:19;101721.75;;;22.48;13.87
29941;BME280;16801;53.562;10.038;2023-04-06T12:26:40;101750.47;;;22.55;13.44
29941;BME280;16801;53.562;10.038;2023-04-06T12:30:01;101735.53;;;24.30;12.23
29941;BME280;16801;53.562;10.038;2023-04-06T12:33:23;101735.28;;;24.32;12.07
29941;BME280;16801;53.562;10.038;2023-04-06T12:36:44;101733.63;;;23.96;12.46
29941;BME280;16801;53.562;10.038;2023-04-06T12:40:07;101725.19;;;23.45;13.38
29941;BME280;16801;53.562;10.038;2023-04-06T12:43:29;101718.59;;;26.26;12.14
29941;BME280;16801;53.562;10.038;2023-04-06T12:46:51;101727.00;;;21.01;15.09
29941;BME280;16801;53.562;10.038;2023-04-06T12:50:12;101721.81;;;21.62;14.86
29941;BME280;16801;53.562;10.038;2023-04-06T12:53:33;101707.13;;;23.46;13.56
29941;BME280;16801;53.562;10.038;2023-04-06T12:56:56;101701.94;;;25.73;12.19
29941;BME280;16801;53.562;10.038;2023-04-06T13:00:19;101708.97;;;25.24;12.60
29941;BME280;16801;53.562;10.038;2023-04-06T13:03:40;101700.38;;;24.82;12.54
29941;BME280;16801;53.562;10.038;2023-04-06T13:07:01;101713.84;;;23.02;12.88
29941;BME280;16801;53.562;10.038;2023-04-06T13:10:22;101707.41;;;23.91;13.17
29941;BME280;16801;53.562;10.038;2023-04-06T13:13:45;101698.72;;;23.77;12.62
29941;BME280;16801;53.562;10.038;2023-04-06T13:17:06;101695.63;;;25.17;12.06
29941;BME280;16801;53.562;10.038;2023-04-06T13:20:27;101692.00;;;24.15;12.87
29941;BME280;16801;53.562;10.038;2023-04-06T13:23:48;101697.41;;;22.43;13.75
29941;BME280;16801;53.562;10.038;2023-04-06T13:27:09;101692.13;;;23.27;13.34
29941;BME280;16801;53.562;10.038;2023-04-06T13:30:32;101692.28;;;22.72;13.68
29941;BME280;16801;53.562;10.038;2023-04-06T13:33:54;101679.88;;;24.98;13.08
29941;BME280;16801;53.562;10.038;2023-04-06T13:37:15;101683.75;;;25.02;12.56
29941;BME280;16801;53.562;10.038;2023-04-06T13:40:38;101684.22;;;23.13;13.41
29941;BME280;16801;53.562;10.038;2023-04-06T13:43:59;101670.88;;;25.09;12.69
29941;BME280;16801;53.562;10.038;2023-04-06T13:47:21;101669.75;;;23.84;13.01
29941;BME280;16801;53.562;10.038;2023-04-06T13:50:42;101662.22;;;24.78;12.47
29941;BME280;16801;53.562;10.038;2023-04-06T13:54:03;101662.28;;;25.12;12.77
29941;BME280;16801;53.562;10.038;2023-04-06T13:57:24;101679.84;;;20.22;16.02
29941;BME280;16801;53.562;10.038;2023-04-06T14:00:45;101657.09;;;22.07;15.76
29941;BME280;16801;53.562;10.038;2023-04-06T14:04:08;101653.53;;;24.08;13.70
29941;BME280;16801;53.562;10.038;2023-04-06T14:07:29;101653.13;;;23.76;13.97
29941;BME280;16801;53.562;10.038;2023-04-06T14:10:50;101667.69;;;21.02;15.72
29941;BME280;16801;53.562;10.038;2023-04-06T14:14:13;101661.22;;;21.66;16.22
29941;BME280;16801;53.562;10.038;2023-04-06T14:17:34;101660.34;;;21.47;16.01
29941;BME280;16801;53.562;10.038;2023-04-06T14:20:57;101659.50;;;20.97;17.11
29941;BME280;16801;53.562;10.038;2023-04-06T14:24:19;101659.97;;;19.78;18.14
29941;BME280;16801;53.562;10.038;2023-04-06T14:27:41;101651.56;;;19.55;18.58
29941;BME280;16801;53.562;10.038;2023-04-06T14:31:09;101643.09;;;19.78;18.15
29941;BME280;16801;53.562;10.038;2023-04-06T14:34:36;101649.44;;;17.83;19.88
29941;BME280;16801;53.562;10.038;2023-04-06T14:37:59;101662.31;;;16.81;20.95
29941;BME280;16801;53.562;10.038;2023-04-06T14:41:23;101658.13;;;17.35;21.44
29941;BME280;16801;53.562;10.038;2023-04-06T14:44:44;101648.53;;;18.58;20.58
29941;BME280;16801;53.562;10.038;2023-04-06T14:48:05;101649.56;;;18.09;20.46
29941;BME280;16801;53.562;10.038;2023-04-06T14:51:26;101648.66;;;18.30;20.74
29941;BME280;16801;53.562;10.038;2023-04-06T14:54:49;101633.31;;;18.04;20.04
29941;BME280;16801;53.562;10.038;2023-04-06T14:58:12;101635.00;;;18.66;20.73
29941;BME280;16801;53.562;10.038;2023-04-06T15:01:34;101638.19;;;17.59;20.36
29941;BME280;16801;53.562;10.038;2023-04-06T15:04:55;101645.16;;;17.60;21.16
29941;BME280;16801;53.562;10.038;2023-04-06T15:08:16;101643.28;;;16.33;21.95
29941;BME280;16801;53.562;10.038;2023-04-06T15:11:41;101651.66;;;16.30;22.37
29941;BME280;16801;53.562;10.038;2023-04-06T15:15:02;101641.44;;;16.48;21.75
29941;BME280;16801;53.562;10.038;2023-04-06T15:18:23;101643.97;;;16.92;21.49
29941;BME280;16801;53.562;10.038;2023-04-06T15:21:44;101637.06;;;15.67;22.45
29941;BME280;16801;53.562;10.038;2023-04-06T15:25:06;101644.84;;;16.42;23.19
29941;BME280;16801;53.562;10.038;2023-04-06T15:28:28;101643.38;;;16.75;21.86
29941;BME280;16801;53.562;10.038;2023-04-06T15:31:50;101646.91;;;16.61;22.71
29941;BME280;16801;53.562;10.038;2023-04-06T15:35:11;101644.97;;;17.34;22.05
29941;BME280;16801;53.562;10.038;2023-04-06T15:38:32;101638.75;;;17.27;21.96
29941;BME280;16801;53.562;10.038;2023-04-06T15:41:53;101637.69;;;17.49;21.47
29941;BME280;16801;53.562;10.038;2023-04-06T15:45:16;101633.88;;;16.52;21.91
29941;BME280;16801;53.562;10.038;2023-04-06T15:48:38;101634.72;;;16.01;22.79
29941;BME280;16801;53.562;10.038;2023-04-06T15:51:59;101628.84;;;16.42;23.06
29941;BME280;16801;53.562;10.038;2023-04-06T15:55:22;101624.94;;;16.59;24.59
29941;BME280;16801;53.562;10.038;2023-04-06T15:58:43;101630.69;;;16.99;23.80
29941;BME280;16801;53.562;10.038;2023-04-06T16:02:05;101632.41;;;17.06;23.30
29941;BME280;16801;53.562;10.038;2023-04-06T16:05:29;101636.44;;;17.24;26.38
29941;BME280;16801;53.562;10.038;2023-04-06T16:08:53;101632.50;;;17.20;26.11
29941;BME280;16801;53.562;10.038;2023-04-06T16:12:13;101633.78;;;17.24;27.30
29941;BME280;16801;53.562;10.038;2023-04-06T16:15:35;101631.06;;;17.17;25.01
29941;BME280;16801;53.562;10.038;2023-04-06T16:18:57;101631.31;;;17.01;25.66
29941;BME280;16801;53.562;10.038;2023-04-06T16:22:18;101634.19;;;16.78;24.00
29941;BME280;16801;53.562;10.038;2023-04-06T16:25:39;101638.63;;;16.56;25.43
29941;BME280;16801;53.562;10.038;2023-04-06T16:29:01;101638.09;;;15.95;23.73
29941;BME280;16801;53.562;10.038;2023-04-06T16:32:23;101641.03;;;16.15;25.31
29941;BME280;16801;53.562;10.038;2023-04-06T16:35:46;101633.38;;;16.27;26.49
29941;BME280;16801;53.562;10.038;2023-04-06T16:39:08;101635.06;;;16.13;23.82
29941;BME280;16801;53.562;10.038;2023-04-06T16:42:29;101634.72;;;16.01;23.92
29941;BME280;16801;53.562;10.038;2023-04-06T16:45:50;101639.50;;;15.16;24.81
29941;BME280;16801;53.562;10.038;2023-04-06T16:49:11;101636.50;;;15.19;27.40
29941;BME280;16801;53.562;10.038;2023-04-06T16:52:34;101634.31;;;15.23;26.96
29941;BME280;16801;53.562;10.038;2023-04-06T16:55:56;101636.72;;;15.70;26.36
29941;BME280;16801;53.562;10.038;2023-04-06T16:59:17;101637.41;;;15.49;26.46
29941;BME280;16801;53.562;10.038;2023-04-06T17:02:38;101633.78;;;15.42;24.57
29941;BME280;16801;53.562;10.038;2023-04-06T17:05:59;101634.09;;;14.87;26.00
29941;BME280;16801;53.562;10.038;2023-04-06T17:09:21;101635.25;;;14.61;26.03
29941;BME280;16801;53.562;10.038;2023-04-06T17:12:43;101632.78;;;14.60;26.25
29941;BME280;16801;53.562;10.038;2023-04-06T17:16:05;101648.16;;;13.94;26.20
29941;BME280;16801;53.562;10.038;2023-04-06T17:19:26;101639.03;;;13.89;26.76
29941;BME280;16801;53.562;10.038;2023-04-06T17:22:47;101638.47;;;13.54;27.78
29941;BME280;16801;53.562;10.038;2023-04-06T17:26:09;101641.72;;;13.81;26.96
29941;BME280;16801;53.562;10.038;2023-04-06T17:29:34;101651.53;;;13.64;27.40
29941;BME280;16801;53.562;10.038;2023-04-06T17:32:55;101634.44;;;13.75;27.44